createdAt,value
2022-08-26T00:03:19.339Z,26.10
2022-08-26T00:08:21.027Z,18.00
2022-08-26T00:13:22.142Z,15.70
2022-08-26T00:18:23.530Z,19.70
2022-08-26T00:23:27.233Z,17.80
2022-08-26T00:28:30.996Z,17.70
2022-08-26T00:33:32.128Z,18.60
2022-08-26T00:38:35.285Z,15.40
2022-08-26T00:43:46.218Z,16.40
2022-08-26T00:48:53.136Z,19.00
2022-08-26T00:53:59.049Z,19.00
2022-08-26T00:59:05.842Z,18.10
2022-08-26T01:04:08.641Z,19.40
2022-08-26T01:09:09.893Z,27.40
2022-08-26T01:14:12.812Z,20.80
2022-08-26T01:19:36.717Z,16.90
2022-08-26T01:24:39.483Z,14.90
2022-08-26T01:29:43.614Z,14.00
2022-08-26T01:34:46.597Z,14.00
2022-08-26T01:39:53.023Z,11.10
2022-08-26T01:45:00.109Z,6.20
2022-08-26T01:50:06.805Z,14.00
2022-08-26T01:55:11.406Z,12.10
2022-08-26T02:00:13.714Z,10.60
2022-08-26T02:05:21.374Z,9.00
2022-08-26T02:10:23.435Z,8.10
2022-08-26T02:15:25.330Z,8.10
2022-08-26T02:20:26.865Z,7.90
2022-08-26T02:25:40.610Z,5.10
2022-08-26T02:30:42.681Z,5.90
2022-08-26T02:35:44.587Z,6.00
2022-08-26T02:40:45.859Z,7.80
2022-08-26T02:45:49.601Z,6.30
2022-08-26T02:50:51.029Z,8.80
2022-08-26T02:55:52.359Z,11.80
2022-08-26T03:00:53.801Z,12.60
2022-08-26T03:05:56.074Z,13.60
2022-08-26T03:10:57.239Z,13.20
2022-08-26T03:16:00.947Z,19.30
2022-08-26T03:21:14.640Z,15.70
2022-08-26T03:26:16.246Z,16.60
2022-08-26T03:31:17.639Z,16.10
2022-08-26T03:36:19.550Z,12.60
2022-08-26T03:41:21.029Z,10.90
2022-08-26T03:46:22.178Z,14.60
2022-08-26T03:51:23.355Z,10.00
2022-08-26T03:56:26.510Z,5.80
2022-08-26T04:01:29.035Z,9.60
2022-08-26T04:06:44.731Z,8.70
2022-08-26T04:11:47.496Z,11.60
2022-08-26T04:16:54.027Z,11.70
2022-08-26T04:21:56.789Z,10.50
2022-08-26T04:26:57.998Z,8.80
2022-08-26T04:31:59.223Z,10.40
2022-08-26T04:37:01.192Z,11.50
2022-08-26T04:42:02.394Z,13.20
2022-08-26T04:47:04.079Z,13.80
2022-08-26T04:52:05.452Z,11.30
2022-08-26T04:57:06.838Z,15.50
2022-08-26T05:02:08.085Z,15.90
2022-08-26T05:07:10.508Z,17.20
2022-08-26T05:12:11.645Z,10.90
2022-08-26T05:17:14.874Z,18.50
2022-08-26T05:22:16.677Z,15.90
2022-08-26T05:27:19.623Z,13.40
2022-08-26T05:32:20.847Z,13.80
2022-08-26T05:37:22.320Z,16.00
2022-08-26T05:42:23.545Z,11.80
2022-08-26T05:47:25.476Z,13.70
2022-08-26T05:52:26.694Z,11.70
2022-08-26T05:57:29.589Z,14.10
2022-08-26T06:02:30.942Z,13.50
2022-08-26T06:07:51.194Z,12.70
2022-08-26T06:12:52.364Z,10.30
2022-08-26T06:17:53.549Z,11.70
2022-08-26T06:23:13.325Z,10.80
2022-08-26T06:28:14.528Z,11.30
2022-08-26T06:33:16.146Z,10.40
2022-08-26T06:38:17.642Z,15.30
2022-08-26T06:43:24.448Z,12.70
2022-08-26T06:48:25.587Z,13.80
2022-08-26T06:53:28.059Z,8.20
2022-08-26T06:58:31.844Z,10.50
2022-08-26T07:03:34.963Z,8.20
2022-08-26T07:08:40.899Z,11.40
2022-08-26T07:13:42.426Z,9.30
2022-08-26T07:18:45.752Z,11.90
2022-08-26T07:23:48.160Z,8.90
2022-08-26T07:28:53.456Z,14.30
2022-08-26T07:33:54.920Z,10.80
2022-08-26T07:38:56.629Z,8.20
2022-08-26T07:43:57.868Z,13.40
2022-08-26T07:49:00.108Z,7.40
2022-08-26T07:54:01.331Z,8.60
2022-08-26T07:59:03.289Z,10.60
2022-08-26T08:04:17.179Z,9.60
2022-08-26T08:09:19.482Z,7.90
2022-08-26T08:14:23.446Z,13.50
2022-08-26T08:19:29.893Z,9.30
2022-08-26T08:24:40.270Z,12.40
2022-08-26T08:29:41.412Z,10.30
2022-08-26T08:39:44.846Z,14.40
2022-08-26T08:44:52.155Z,11.10
2022-08-26T08:49:59.551Z,11.00
2022-08-26T08:55:02.319Z,9.70
2022-08-26T09:00:21.653Z,8.20
2022-08-26T09:05:41.337Z,8.40
2022-08-26T09:10:51.480Z,8.20
2022-08-26T09:16:14.985Z,8.40
2022-08-26T09:21:19.271Z,7.00
2022-08-26T09:26:25.956Z,7.00
2022-08-26T09:31:36.216Z,8.80
2022-08-26T09:36:44.921Z,11.90
2022-08-26T09:42:02.750Z,10.00
2022-08-26T09:47:06.366Z,6.90
2022-08-26T09:52:27.076Z,6.60
2022-08-26T09:57:34.104Z,9.60
2022-08-26T10:02:40.847Z,8.50
2022-08-26T10:07:50.776Z,8.10
2022-08-26T10:13:02.688Z,10.80
2022-08-26T10:18:13.727Z,6.10
2022-08-26T10:23:17.810Z,8.90
2022-08-26T10:28:22.462Z,8.30
2022-08-26T10:33:24.647Z,9.80
2022-08-26T10:38:36.803Z,7.80
2022-08-26T10:43:54.351Z,13.30
2022-08-26T10:49:01.045Z,8.20
2022-08-26T10:54:13.920Z,7.10
2022-08-26T10:59:24.233Z,11.80
2022-08-26T11:04:48.871Z,8.50
2022-08-26T11:09:51.990Z,8.10
2022-08-26T11:14:58.869Z,9.30
2022-08-26T11:20:07.429Z,8.00
2022-08-26T11:25:15.549Z,10.00
2022-08-26T11:30:19.426Z,11.40
2022-08-26T11:35:20.966Z,8.80
2022-08-26T11:40:29.406Z,10.20
2022-08-26T11:45:38.498Z,7.50
2022-08-26T11:50:39.730Z,9.60
2022-08-26T11:55:44.072Z,7.50
2022-08-26T12:00:45.708Z,10.40
2022-08-26T12:05:51.244Z,8.30
2022-08-26T12:11:18.941Z,5.90
2022-08-26T12:16:24.751Z,6.70
2022-08-26T12:21:31.496Z,10.70
2022-08-26T12:26:36.373Z,9.00
2022-08-26T12:31:40.175Z,7.40
2022-08-26T12:36:48.040Z,8.70
2022-08-26T12:41:53.270Z,7.40
2022-08-26T12:47:03.312Z,7.60
2022-08-26T12:52:29.043Z,13.20
2022-08-26T12:57:34.478Z,9.70
2022-08-26T13:02:38.461Z,6.60
2022-08-26T13:07:40.547Z,7.70
2022-08-26T13:12:43.021Z,7.10
2022-08-26T13:17:44.208Z,7.50
2022-08-26T13:22:46.949Z,10.70
2022-08-26T13:27:59.635Z,7.10
2022-08-26T13:33:00.987Z,10.80
2022-08-26T13:38:04.190Z,5.40
2022-08-26T13:43:09.883Z,7.50
2022-08-26T13:48:11.443Z,5.90
2022-08-26T13:53:15.424Z,7.00
2022-08-26T13:58:16.645Z,7.90
2022-08-26T14:03:18.020Z,9.00
2022-08-26T14:08:21.566Z,9.00
2022-08-26T14:13:24.973Z,6.80
2022-08-26T14:18:42.039Z,9.50
2022-08-26T14:23:47.261Z,8.10
2022-08-26T14:28:50.979Z,8.60
2022-08-26T14:33:52.343Z,8.90
2022-08-26T14:39:01.096Z,9.10
2022-08-26T14:44:09.931Z,7.80
2022-08-26T14:49:11.891Z,16.30
2022-08-26T14:54:15.455Z,11.50
2022-08-26T14:59:28.423Z,9.10
2022-08-26T15:04:29.650Z,6.30
2022-08-26T15:09:34.303Z,5.20
2022-08-26T15:14:36.012Z,8.00
2022-08-26T15:19:38.301Z,7.40
2022-08-26T15:24:39.891Z,9.90
2022-08-26T15:29:41.070Z,7.90
2022-08-26T15:34:42.825Z,6.30
2022-08-26T15:39:44.033Z,8.40
2022-08-26T15:44:45.788Z,7.70
2022-08-26T15:49:47.408Z,8.50
2022-08-26T15:54:48.967Z,10.50
2022-08-26T15:59:51.852Z,6.50
2022-08-26T16:04:53.221Z,6.20
2022-08-26T16:09:56.648Z,5.80
2022-08-26T16:14:57.900Z,6.70
2022-08-26T16:19:59.580Z,7.40
2022-08-26T16:25:00.962Z,8.50
2022-08-26T16:30:06.403Z,6.70
2022-08-26T16:35:07.643Z,10.30
2022-08-26T16:40:09.815Z,10.80
2022-08-26T16:45:11.098Z,11.00
2022-08-26T16:50:12.799Z,11.10
2022-08-26T16:55:15.247Z,8.70
2022-08-26T17:00:27.334Z,7.80
2022-08-26T17:05:29.076Z,7.80
2022-08-26T17:10:30.892Z,7.80
2022-08-26T17:15:32.226Z,8.80
2022-08-26T17:20:33.540Z,8.50
2022-08-26T17:25:34.684Z,12.60
2022-08-26T17:30:37.213Z,10.70
2022-08-26T17:35:38.500Z,9.80
2022-08-26T17:40:39.846Z,7.90
2022-08-26T17:45:42.204Z,9.40
2022-08-26T17:50:43.495Z,11.80
2022-08-26T17:55:52.013Z,7.10
2022-08-26T18:00:54.106Z,7.70
2022-08-26T18:05:55.226Z,8.30
2022-08-26T18:10:57.437Z,9.10
2022-08-26T18:15:59.222Z,8.50
2022-08-26T18:21:03.218Z,11.40
2022-08-26T18:26:04.618Z,6.60
2022-08-26T18:31:08.379Z,11.20
2022-08-26T18:36:18.956Z,10.90
2022-08-26T18:41:23.219Z,10.80
2022-08-26T18:46:26.526Z,7.60
2022-08-26T18:51:30.422Z,7.80
2022-08-26T18:56:32.931Z,8.10
2022-08-26T19:01:36.160Z,8.20
2022-08-26T19:06:42.563Z,7.70
2022-08-26T19:11:44.678Z,10.10
2022-08-26T19:16:49.122Z,9.40
2022-08-26T19:21:52.459Z,12.30
2022-08-26T19:26:57.758Z,14.40
2022-08-26T19:31:59.458Z,14.40
2022-08-26T19:37:00.631Z,15.30
2022-08-26T19:42:01.803Z,14.30
2022-08-26T19:47:04.902Z,10.50
2022-08-26T19:52:06.658Z,11.00
2022-08-26T19:57:07.917Z,13.00
2022-08-26T20:02:11.292Z,12.90
2022-08-26T20:07:18.105Z,13.20
2022-08-26T20:12:20.147Z,12.00
2022-08-26T20:17:22.088Z,12.60
2022-08-26T20:22:24.011Z,11.80
2022-08-26T20:27:37.987Z,9.70
2022-08-26T20:32:41.009Z,8.70
2022-08-26T20:37:42.315Z,9.90
2022-08-26T20:42:44.955Z,15.20
2022-08-26T20:47:46.247Z,10.40
2022-08-26T20:52:47.416Z,9.90
2022-08-26T20:57:48.657Z,12.40
2022-08-26T21:02:49.920Z,13.20
2022-08-26T21:07:51.308Z,12.50
2022-08-26T21:12:52.656Z,14.00
2022-08-26T21:17:53.934Z,16.40
2022-08-26T21:22:55.341Z,12.00
2022-08-26T21:27:56.709Z,9.10
2022-08-26T21:48:17.208Z,10.10
2022-08-26T21:53:19.608Z,7.70
2022-08-26T21:58:20.872Z,10.70
2022-08-26T22:03:22.306Z,8.10
2022-08-26T22:08:23.499Z,10.10
2022-08-26T22:13:36.879Z,6.60
2022-08-26T22:18:40.265Z,11.60
2022-08-26T22:23:42.042Z,12.60
2022-08-26T22:28:43.505Z,8.20
2022-08-26T22:33:45.111Z,10.60
2022-08-26T22:38:46.970Z,7.50
2022-08-26T22:43:48.707Z,8.20
2022-08-26T22:48:53.754Z,8.10
2022-08-26T22:53:55.342Z,8.50
2022-08-26T22:58:56.574Z,7.40
2022-08-26T23:03:57.776Z,9.10
2022-08-26T23:08:59.204Z,9.60
2022-08-26T23:14:06.517Z,9.10
2022-08-26T23:19:11.085Z,14.20
2022-08-26T23:24:13.046Z,9.40
2022-08-26T23:29:15.112Z,9.20
2022-08-26T23:34:34.894Z,8.90
2022-08-26T23:39:36.432Z,12.30
2022-08-26T23:44:38.224Z,9.70
2022-08-26T23:49:39.986Z,8.00
2022-08-26T23:54:41.456Z,10.90
2022-08-26T23:59:42.759Z,8.00
